createdAt,value
2024-05-09T00:00:31.619Z,12.35
2024-05-09T00:03:30.545Z,12.31
2024-05-09T00:06:22.496Z,12.39
2024-05-09T00:09:14.354Z,12.42
2024-05-09T00:12:06.473Z,12.38
2024-05-09T00:14:58.538Z,12.41
2024-05-09T00:17:50.564Z,12.44
2024-05-09T00:20:42.723Z,12.57
2024-05-09T00:23:34.925Z,12.50
2024-05-09T00:26:27.047Z,12.46
2024-05-09T00:29:18.997Z,12.43
2024-05-09T00:32:11.224Z,12.38
2024-05-09T00:35:03.266Z,12.25
2024-05-09T00:37:55.307Z,12.13
2024-05-09T00:40:47.463Z,12.04
2024-05-09T00:43:40.123Z,12.00
2024-05-09T00:46:32.066Z,12.03
2024-05-09T00:49:26.669Z,11.95
2024-05-09T00:52:18.821Z,11.87
2024-05-09T00:55:10.854Z,11.79
2024-05-09T00:58:05.102Z,11.86
2024-05-09T01:01:01.545Z,12.00
2024-05-09T01:03:53.929Z,11.94
2024-05-09T01:06:46.147Z,11.95
2024-05-09T01:09:38.080Z,11.89
2024-05-09T01:12:29.982Z,11.75
2024-05-09T01:15:21.910Z,11.84
2024-05-09T01:18:14.439Z,11.87
2024-05-09T01:21:06.459Z,11.89
2024-05-09T01:23:58.360Z,11.94
2024-05-09T01:26:50.720Z,11.85
2024-05-09T01:29:42.649Z,11.80
2024-05-09T01:32:34.705Z,11.87
2024-05-09T01:35:26.804Z,11.86
2024-05-09T01:38:18.801Z,11.99
2024-05-09T01:41:10.776Z,11.79
2024-05-09T01:44:02.687Z,11.76
2024-05-09T01:46:54.719Z,11.85
2024-05-09T01:49:46.662Z,11.81
2024-05-09T01:52:38.610Z,11.79
2024-05-09T01:55:30.512Z,11.77
2024-05-09T01:58:22.512Z,11.83
2024-05-09T02:01:14.678Z,11.67
2024-05-09T02:04:06.988Z,11.79
2024-05-09T02:06:59.079Z,11.74
2024-05-09T02:09:54.091Z,11.61
2024-05-09T02:12:46.007Z,11.60
2024-05-09T02:15:38.027Z,11.52
2024-05-09T02:18:30.042Z,11.51
2024-05-09T02:21:22.044Z,11.64
2024-05-09T02:24:13.968Z,11.61
2024-05-09T02:27:05.915Z,11.59
2024-05-09T02:29:57.893Z,11.49
2024-05-09T02:32:49.939Z,11.43
2024-05-09T02:35:43.668Z,11.39
2024-05-09T02:38:37.022Z,11.47
2024-05-09T02:41:29.093Z,11.44
2024-05-09T02:44:21.223Z,11.36
2024-05-09T02:47:13.341Z,11.37
2024-05-09T02:50:07.868Z,11.43
2024-05-09T02:52:59.968Z,11.41
2024-05-09T02:55:51.901Z,11.46
2024-05-09T02:58:43.916Z,11.32
2024-05-09T03:01:35.954Z,11.50
2024-05-09T03:04:28.029Z,11.48
2024-05-09T03:07:20.387Z,11.57
2024-05-09T03:10:18.462Z,11.49
2024-05-09T03:13:15.963Z,11.60
2024-05-09T03:16:08.347Z,11.71
2024-05-09T03:19:00.361Z,11.81
2024-05-09T03:21:52.375Z,11.64
2024-05-09T03:24:44.319Z,11.77
2024-05-09T03:27:37.921Z,11.85
2024-05-09T03:30:38.936Z,11.94
2024-05-09T03:33:34.873Z,12.07
2024-05-09T03:36:27.009Z,11.98
2024-05-09T03:39:18.965Z,12.08
2024-05-09T03:42:10.949Z,11.90
2024-05-09T03:45:02.904Z,11.79
2024-05-09T03:47:55.105Z,11.61
2024-05-09T03:50:47.383Z,11.73
2024-05-09T03:53:39.472Z,11.53
2024-05-09T03:56:31.691Z,11.52
2024-05-09T03:59:23.705Z,11.36
2024-05-09T04:02:15.739Z,11.44
2024-05-09T04:05:07.743Z,11.25
2024-05-09T04:07:59.887Z,11.20
2024-05-09T04:10:51.923Z,11.15
2024-05-09T04:13:43.916Z,11.06
2024-05-09T04:16:35.863Z,11.29
2024-05-09T04:19:28.587Z,11.27
2024-05-09T04:22:20.576Z,11.27
2024-05-09T04:25:12.671Z,11.22
2024-05-09T04:28:05.167Z,11.29
2024-05-09T04:30:57.235Z,11.37
2024-05-09T04:33:49.316Z,11.34
2024-05-09T04:36:43.951Z,11.37
2024-05-09T04:39:36.385Z,11.55
2024-05-09T04:42:28.350Z,11.54
2024-05-09T04:45:20.239Z,11.72
2024-05-09T04:48:12.329Z,11.75
2024-05-09T04:51:07.063Z,11.92
2024-05-09T04:53:59.060Z,12.13
2024-05-09T04:56:50.960Z,12.11
2024-05-09T04:59:42.904Z,12.08
2024-05-09T05:02:35.249Z,12.09
2024-05-09T05:05:27.274Z,12.04
2024-05-09T05:08:19.680Z,12.18
2024-05-09T05:11:12.354Z,12.04
2024-05-09T05:14:04.402Z,11.96
2024-05-09T05:16:56.410Z,12.22
2024-05-09T05:19:48.536Z,12.03
2024-05-09T05:22:40.543Z,12.12
2024-05-09T05:25:32.427Z,12.12
2024-05-09T05:28:24.522Z,12.19
2024-05-09T05:31:16.496Z,12.44
2024-05-09T05:34:08.423Z,12.23
2024-05-09T05:37:00.286Z,12.29
2024-05-09T05:39:52.165Z,12.28
2024-05-09T05:42:44.095Z,12.16
2024-05-09T05:45:36.395Z,12.31
2024-05-09T05:48:29.077Z,12.55
2024-05-09T05:51:21.306Z,12.26
2024-05-09T05:54:13.290Z,12.26
2024-05-09T05:57:05.173Z,12.21
2024-05-09T05:59:57.044Z,12.13
2024-05-09T06:02:49.147Z,12.18
2024-05-09T06:05:41.523Z,12.23
2024-05-09T06:08:33.633Z,12.21
2024-05-09T06:11:25.702Z,12.55
2024-05-09T06:14:17.804Z,12.79
2024-05-09T06:17:09.999Z,12.94
2024-05-09T06:20:02.053Z,13.34
2024-05-09T06:22:54.057Z,13.34
2024-05-09T06:25:46.013Z,13.09
2024-05-09T06:28:37.973Z,13.11
2024-05-09T06:31:29.848Z,13.09
2024-05-09T06:34:21.821Z,13.08
2024-05-09T06:37:13.775Z,12.95
2024-05-09T06:40:07.576Z,13.17
2024-05-09T06:43:01.683Z,13.26
2024-05-09T06:45:53.600Z,13.44
2024-05-09T06:48:45.844Z,13.86
2024-05-09T06:51:38.305Z,14.02
2024-05-09T06:54:30.220Z,14.32
2024-05-09T06:57:22.108Z,14.74
2024-05-09T07:00:22.712Z,14.90
2024-05-09T07:03:22.322Z,14.78
2024-05-09T07:06:14.319Z,14.38
2024-05-09T07:09:06.259Z,14.53
2024-05-09T07:11:58.212Z,14.33
2024-05-09T07:14:50.578Z,14.28
2024-05-09T07:17:42.767Z,14.83
2024-05-09T07:20:35.312Z,15.07
2024-05-09T07:23:28.373Z,15.03
2024-05-09T07:26:20.410Z,15.37
2024-05-09T07:29:12.392Z,15.41
2024-05-09T07:32:04.787Z,15.38
2024-05-09T07:34:56.732Z,15.61
2024-05-09T07:37:48.657Z,15.94
2024-05-09T07:40:40.643Z,16.20
2024-05-09T07:43:32.665Z,16.61
2024-05-09T07:47:20.223Z,16.84
2024-05-09T07:53:32.684Z,15.93
2024-05-09T07:55:43.259Z,16.20
2024-05-09T07:58:35.226Z,16.09
2024-05-09T08:01:27.317Z,15.53
2024-05-09T08:04:19.638Z,15.58
2024-05-09T08:07:11.963Z,15.81
2024-05-09T08:10:05.260Z,15.65
2024-05-09T08:12:58.400Z,15.38
2024-05-09T08:15:51.551Z,15.54
2024-05-09T08:18:43.635Z,15.95
2024-05-09T08:21:35.654Z,16.32
2024-05-09T08:24:27.602Z,16.97
2024-05-09T08:27:19.525Z,17.03
2024-05-09T08:30:18.955Z,16.89
2024-05-09T08:33:16.963Z,17.45
2024-05-09T08:36:09.000Z,17.42
2024-05-09T08:39:00.899Z,17.06
2024-05-09T08:41:52.781Z,16.63
2024-05-09T08:44:44.877Z,16.65
2024-05-09T08:47:37.094Z,16.59
2024-05-09T08:50:36.320Z,16.47
2024-05-09T08:53:31.198Z,16.69
2024-05-09T08:56:28.248Z,16.67
2024-05-09T08:59:36.262Z,17.30
2024-05-09T09:02:28.575Z,17.61
2024-05-09T09:05:30.234Z,17.77
2024-05-09T09:08:25.695Z,17.94
2024-05-09T09:11:17.627Z,17.88
2024-05-09T09:14:09.567Z,17.60
2024-05-09T09:17:12.359Z,17.14
2024-05-09T09:20:05.466Z,17.60
2024-05-09T09:23:00.837Z,17.31
2024-05-09T09:25:52.783Z,17.64
2024-05-09T09:28:44.994Z,17.54
2024-05-09T09:31:36.957Z,18.02
2024-05-09T09:34:30.086Z,17.87
2024-05-09T09:37:27.845Z,18.12
2024-05-09T09:40:22.396Z,18.65
2024-05-09T09:43:22.616Z,18.45
2024-05-09T09:46:17.824Z,17.89
2024-05-09T09:49:10.152Z,18.04
2024-05-09T09:52:02.689Z,18.36
2024-05-09T09:54:57.054Z,18.39
2024-05-09T09:57:49.210Z,18.83
2024-05-09T10:00:41.957Z,19.15
2024-05-09T10:03:34.804Z,18.82
2024-05-09T10:06:31.351Z,18.94
2024-05-09T10:09:23.806Z,18.96
2024-05-09T10:12:15.966Z,19.15
2024-05-09T10:15:08.702Z,18.99
2024-05-09T10:18:05.078Z,19.68
2024-05-09T10:20:57.119Z,18.31
2024-05-09T10:24:05.178Z,19.38
2024-05-09T10:26:57.243Z,19.60
2024-05-09T10:30:00.787Z,20.22
2024-05-09T10:32:56.543Z,19.97
2024-05-09T10:35:51.860Z,20.56
2024-05-09T10:38:43.929Z,20.40
2024-05-09T10:41:38.163Z,19.86
2024-05-09T10:44:30.276Z,19.89
2024-05-09T10:47:23.056Z,19.63
2024-05-09T10:50:22.314Z,19.97
2024-05-09T10:53:20.187Z,20.23
2024-05-09T10:56:15.377Z,20.83
2024-05-09T10:59:07.347Z,21.02
2024-05-09T11:02:02.942Z,20.97
2024-05-09T11:04:55.130Z,20.49
2024-05-09T11:07:47.482Z,20.26
2024-05-09T11:10:40.358Z,20.88
2024-05-09T11:13:34.591Z,21.31
2024-05-09T11:16:26.557Z,21.68
2024-05-09T11:19:18.667Z,20.55
2024-05-09T11:22:10.961Z,19.88
2024-05-09T11:25:03.313Z,20.24
2024-05-09T11:27:58.762Z,21.18
2024-05-09T11:30:51.508Z,21.99
2024-05-09T11:33:44.634Z,22.36
2024-05-09T11:36:36.734Z,21.82
2024-05-09T11:39:28.858Z,21.49
2024-05-09T11:42:20.786Z,21.75
2024-05-09T11:45:12.810Z,21.90
2024-05-09T11:48:05.251Z,22.53
2024-05-09T11:50:57.259Z,22.36
2024-05-09T11:53:49.146Z,22.01
2024-05-09T11:56:41.268Z,21.83
2024-05-09T11:59:33.165Z,22.00
2024-05-09T12:02:25.173Z,22.06
2024-05-09T12:05:17.515Z,22.04
2024-05-09T12:08:09.935Z,21.74
2024-05-09T12:11:02.071Z,22.03
2024-05-09T12:13:54.006Z,22.02
2024-05-09T12:16:46.098Z,22.17
2024-05-09T12:19:38.234Z,21.94
2024-05-09T12:22:30.295Z,22.24
2024-05-09T12:25:22.212Z,22.69
2024-05-09T12:28:16.689Z,22.59
2024-05-09T12:31:09.024Z,22.32
2024-05-09T12:34:01.065Z,22.14
2024-05-09T12:36:53.467Z,21.61
2024-05-09T12:39:45.390Z,21.67
2024-05-09T12:42:37.381Z,22.21
2024-05-09T12:45:29.442Z,21.87
2024-05-09T12:48:21.565Z,22.24
2024-05-09T12:51:13.547Z,22.24
2024-05-09T12:54:05.431Z,22.45
2024-05-09T12:56:57.379Z,22.78
2024-05-09T12:59:49.451Z,22.68
2024-05-09T13:02:41.526Z,22.95
2024-05-09T13:05:33.813Z,23.18
2024-05-09T13:08:26.708Z,22.74
2024-05-09T13:11:18.808Z,21.79
2024-05-09T13:14:10.685Z,22.32
2024-05-09T13:17:02.688Z,22.43
2024-05-09T13:19:54.673Z,22.87
2024-05-09T13:22:46.588Z,23.18
2024-05-09T13:25:38.571Z,23.12
2024-05-09T13:28:30.753Z,23.44
2024-05-09T13:31:22.729Z,23.44
2024-05-09T13:34:14.688Z,23.07
2024-05-09T13:37:06.770Z,23.20
2024-05-09T13:40:03.359Z,23.32
2024-05-09T13:42:56.167Z,23.76
2024-05-09T13:45:48.282Z,22.45
2024-05-09T13:48:40.356Z,22.81
2024-05-09T13:51:32.317Z,23.14
2024-05-09T13:54:24.241Z,23.04
2024-05-09T13:57:16.271Z,22.88
2024-05-09T14:00:18.225Z,23.33
2024-05-09T14:03:20.418Z,22.80
2024-05-09T14:06:13.357Z,22.81
2024-05-09T14:09:05.361Z,23.11
2024-05-09T14:11:57.294Z,23.29
2024-05-09T14:14:49.226Z,23.00
2024-05-09T14:17:41.281Z,23.23
2024-05-09T14:20:33.258Z,23.33
2024-05-09T14:23:25.158Z,22.96
2024-05-09T14:26:17.179Z,23.16
2024-05-09T14:29:09.065Z,23.38
2024-05-09T14:32:02.775Z,23.35
2024-05-09T14:34:54.742Z,23.67
2024-05-09T14:37:46.767Z,23.17
2024-05-09T14:40:42.756Z,22.85
2024-05-09T14:43:36.075Z,22.92
2024-05-09T14:46:28.130Z,22.87
2024-05-09T14:49:20.257Z,23.05
2024-05-09T14:52:12.381Z,23.33
2024-05-09T14:55:04.493Z,23.08
2024-05-09T14:57:56.642Z,23.03
2024-05-09T15:00:51.106Z,22.84
2024-05-09T15:03:43.937Z,22.58
2024-05-09T15:06:38.900Z,22.76
2024-05-09T15:09:39.772Z,22.79
2024-05-09T15:12:31.770Z,22.59
2024-05-09T15:15:23.688Z,22.33
2024-05-09T15:18:16.403Z,22.39
2024-05-09T15:21:08.558Z,22.56
2024-05-09T15:24:00.543Z,22.13
2024-05-09T15:26:52.707Z,22.27
2024-05-09T15:29:44.717Z,22.21
2024-05-09T15:32:36.693Z,22.49
2024-05-09T15:35:29.293Z,22.90
2024-05-09T15:38:21.455Z,23.04
2024-05-09T15:41:13.927Z,23.14
2024-05-09T15:44:05.809Z,22.76
2024-05-09T15:46:57.777Z,22.86
2024-05-09T15:49:49.967Z,22.51
2024-05-09T15:52:41.915Z,22.27
2024-05-09T15:55:34.619Z,22.28
2024-05-09T15:58:28.073Z,22.10
2024-05-09T16:01:20.083Z,22.15
2024-05-09T16:04:12.179Z,22.02
2024-05-09T16:07:04.517Z,22.14
2024-05-09T16:09:56.709Z,22.43
2024-05-09T16:12:48.690Z,21.98
2024-05-09T16:15:40.998Z,21.91
2024-05-09T16:18:33.138Z,21.75
2024-05-09T16:21:25.052Z,21.38
2024-05-09T16:24:17.004Z,21.44
2024-05-09T16:27:09.162Z,20.96
2024-05-09T16:30:01.104Z,20.77
2024-05-09T16:32:53.046Z,20.45
2024-05-09T16:35:45.169Z,20.17
2024-05-09T16:38:37.084Z,20.17
2024-05-09T16:41:28.956Z,20.04
2024-05-09T16:44:20.809Z,19.94
2024-05-09T16:47:12.850Z,19.63
2024-05-09T16:50:08.255Z,19.70
2024-05-09T16:53:00.440Z,19.46
2024-05-09T16:55:52.402Z,19.28
2024-05-09T16:58:44.509Z,19.29
2024-05-09T17:01:36.471Z,19.43
2024-05-09T17:04:28.738Z,19.30
2024-05-09T17:07:22.033Z,18.96
2024-05-09T17:10:22.512Z,19.24
2024-05-09T17:13:21.466Z,19.37
2024-05-09T17:16:14.061Z,19.28
2024-05-09T17:19:06.071Z,19.29
2024-05-09T17:21:57.994Z,18.84
2024-05-09T17:24:50.002Z,18.81
2024-05-09T17:27:42.003Z,18.85
2024-05-09T17:30:37.562Z,18.71
2024-05-09T17:33:31.610Z,18.62
2024-05-09T17:36:23.699Z,18.57
2024-05-09T17:39:15.629Z,18.56
2024-05-09T17:42:07.553Z,18.67
2024-05-09T17:44:59.536Z,18.68
2024-05-09T17:47:51.779Z,18.69
2024-05-09T17:50:43.893Z,18.40
2024-05-09T17:53:35.894Z,18.50
2024-05-09T17:56:28.551Z,18.56
2024-05-09T17:59:20.463Z,18.50
2024-05-09T18:02:12.609Z,18.53
2024-05-09T18:05:05.099Z,18.56
2024-05-09T18:07:57.292Z,18.53
2024-05-09T18:10:50.657Z,18.45
2024-05-09T18:13:46.146Z,18.21
2024-05-09T18:16:38.098Z,18.22
2024-05-09T18:19:30.183Z,18.10
2024-05-09T18:22:22.448Z,18.08
2024-05-09T18:25:14.464Z,17.89
2024-05-09T18:28:06.955Z,17.94
2024-05-09T18:30:58.972Z,18.00
2024-05-09T18:33:51.059Z,17.82
2024-05-09T18:36:43.542Z,17.79
2024-05-09T18:39:35.522Z,17.35
2024-05-09T18:42:27.460Z,17.01
2024-05-09T18:45:19.428Z,17.02
2024-05-09T18:48:12.145Z,16.86
2024-05-09T18:51:04.423Z,16.90
2024-05-09T18:53:56.300Z,16.62
2024-05-09T18:56:48.215Z,16.77
2024-05-09T18:59:40.105Z,16.48
2024-05-09T19:02:32.233Z,16.49
2024-05-09T19:05:24.421Z,16.37
2024-05-09T19:08:16.530Z,16.16
2024-05-09T19:11:08.467Z,16.01
2024-05-09T19:14:00.415Z,15.93
2024-05-09T19:16:52.330Z,15.79
2024-05-09T19:19:45.663Z,15.55
2024-05-09T19:22:37.564Z,15.45
2024-05-09T19:25:29.437Z,15.46
2024-05-09T19:28:21.509Z,15.44
2024-05-09T19:31:13.589Z,15.39
2024-05-09T19:34:05.658Z,15.24
2024-05-09T19:36:57.803Z,15.17
2024-05-09T19:39:49.775Z,15.05
2024-05-09T19:42:41.778Z,15.16
2024-05-09T19:45:35.153Z,15.08
2024-05-09T19:48:28.267Z,15.19
2024-05-09T19:51:20.193Z,15.32
2024-05-09T19:54:12.079Z,15.52
2024-05-09T19:57:04.273Z,15.56
2024-05-09T19:59:56.165Z,15.32
2024-05-09T20:02:48.361Z,15.08
2024-05-09T20:05:42.712Z,15.20
2024-05-09T20:08:34.857Z,15.17
2024-05-09T20:11:27.174Z,15.22
2024-05-09T20:14:19.166Z,15.30
2024-05-09T20:17:11.280Z,15.40
2024-05-09T20:20:05.889Z,15.59
2024-05-09T20:22:59.254Z,15.53
2024-05-09T20:25:51.179Z,15.58
2024-05-09T20:28:43.065Z,15.40
2024-05-09T20:31:34.997Z,15.39
2024-05-09T20:34:26.990Z,15.33
2024-05-09T20:37:19.376Z,15.23
2024-05-09T20:40:18.271Z,15.10
2024-05-09T20:43:17.175Z,15.13
2024-05-09T20:46:09.225Z,15.20
2024-05-09T20:49:01.299Z,15.22
2024-05-09T20:51:53.275Z,15.23
2024-05-09T20:54:45.278Z,15.12
2024-05-09T20:57:37.218Z,14.81
2024-05-09T21:00:35.491Z,15.00
2024-05-09T21:03:32.075Z,14.67
2024-05-09T21:06:24.061Z,14.57
2024-05-09T21:09:16.028Z,14.56
2024-05-09T21:12:07.929Z,14.69
2024-05-09T21:14:59.835Z,14.55
2024-05-09T21:17:51.754Z,14.51
2024-05-09T21:20:43.736Z,14.40
2024-05-09T21:23:36.820Z,14.45
2024-05-09T21:26:28.720Z,14.39
2024-05-09T21:29:20.706Z,14.44
2024-05-09T21:32:12.628Z,14.57
2024-05-09T21:35:04.895Z,14.62
2024-05-09T21:37:56.801Z,14.63
2024-05-09T21:40:48.753Z,14.52
2024-05-09T21:43:40.665Z,14.60
2024-05-09T21:46:32.775Z,14.61
2024-05-09T21:49:24.774Z,14.55
2024-05-09T21:52:16.871Z,14.35
2024-05-09T21:55:09.036Z,14.19
2024-05-09T21:58:01.174Z,14.05
2024-05-09T22:00:53.204Z,14.17
2024-05-09T22:03:45.324Z,14.18
2024-05-09T22:06:37.363Z,14.30
2024-05-09T22:09:29.296Z,14.30
2024-05-09T22:12:21.187Z,14.41
2024-05-09T22:15:13.222Z,14.33
2024-05-09T22:18:06.076Z,14.11
2024-05-09T22:20:58.249Z,14.00
2024-05-09T22:23:50.217Z,14.05
2024-05-09T22:26:42.116Z,14.08
2024-05-09T22:29:34.343Z,14.22
2024-05-09T22:32:26.303Z,14.35
2024-05-09T22:35:18.250Z,14.45
2024-05-09T22:38:10.189Z,14.24
2024-05-09T22:41:06.134Z,14.37
2024-05-09T22:43:58.131Z,14.56
2024-05-09T22:46:50.053Z,14.66
2024-05-09T22:49:41.990Z,14.60
2024-05-09T22:52:33.942Z,14.49
2024-05-09T22:55:25.900Z,14.39
2024-05-09T22:58:18.038Z,14.52
2024-05-09T23:01:14.919Z,14.48
2024-05-09T23:04:07.043Z,14.49
2024-05-09T23:06:59.071Z,14.42
2024-05-09T23:09:51.046Z,14.39
2024-05-09T23:12:42.998Z,14.36
2024-05-09T23:15:37.183Z,14.42
2024-05-09T23:18:29.652Z,14.48
2024-05-09T23:21:21.590Z,14.34
2024-05-09T23:24:13.471Z,14.42
2024-05-09T23:27:05.441Z,14.52
2024-05-09T23:29:57.576Z,14.54
2024-05-09T23:32:49.574Z,14.38
2024-05-09T23:35:42.561Z,14.55
2024-05-09T23:38:34.442Z,14.45
2024-05-09T23:41:26.356Z,14.53
2024-05-09T23:44:18.314Z,14.48
2024-05-09T23:47:10.876Z,14.48
2024-05-09T23:50:05.128Z,14.42
2024-05-09T23:52:58.598Z,14.41
2024-05-09T23:55:50.520Z,14.43
2024-05-09T23:58:42.643Z,14.33
